createdAt,value
2022-09-13T00:00:18.077Z,17.96
2022-09-13T00:01:18.118Z,18.01
2022-09-13T00:02:18.123Z,18.03
2022-09-13T00:03:18.024Z,18.05
2022-09-13T00:04:18.004Z,18.11
2022-09-13T00:05:18.014Z,18.08
2022-09-13T00:06:17.971Z,18.08
2022-09-13T00:07:17.954Z,18.01
2022-09-13T00:08:17.933Z,18.01
2022-09-13T00:09:17.921Z,18.09
2022-09-13T00:10:17.900Z,18.09
2022-09-13T00:11:17.902Z,18.13
2022-09-13T00:12:17.864Z,18.23
2022-09-13T00:13:17.857Z,18.23
2022-09-13T00:14:17.832Z,18.34
2022-09-13T00:15:17.819Z,18.33
2022-09-13T00:16:17.856Z,18.38
2022-09-13T00:17:17.795Z,18.38
2022-09-13T00:18:17.764Z,18.46
2022-09-13T00:19:17.745Z,18.49
2022-09-13T00:20:17.722Z,18.45
2022-09-13T00:21:17.701Z,18.46
2022-09-13T00:22:17.690Z,18.41
2022-09-13T00:23:17.688Z,18.48
2022-09-13T00:24:17.652Z,18.57
2022-09-13T00:25:17.639Z,18.43
2022-09-13T00:26:17.622Z,18.48
2022-09-13T00:27:17.603Z,18.49
2022-09-13T00:28:17.583Z,18.46
2022-09-13T00:29:17.584Z,18.56
2022-09-13T00:30:17.548Z,18.56
2022-09-13T00:31:17.597Z,18.49
2022-09-13T00:32:17.530Z,18.58
2022-09-13T00:33:17.498Z,18.57
2022-09-13T00:34:17.481Z,18.54
2022-09-13T00:35:17.457Z,18.52
2022-09-13T00:36:17.444Z,18.57
2022-09-13T00:37:17.445Z,18.56
2022-09-13T00:38:17.407Z,18.56
2022-09-13T00:39:17.399Z,18.52
2022-09-13T00:40:17.461Z,18.52
2022-09-13T00:41:17.354Z,18.54
2022-09-13T00:42:17.339Z,18.52
2022-09-13T00:43:17.337Z,18.56
2022-09-13T00:44:17.316Z,18.46
2022-09-13T00:45:17.285Z,18.54
2022-09-13T00:46:17.266Z,18.49
2022-09-13T00:47:17.251Z,18.58
2022-09-13T00:48:17.240Z,18.60
2022-09-13T00:49:17.245Z,18.49
2022-09-13T00:50:17.197Z,18.52
2022-09-13T00:51:17.181Z,18.51
2022-09-13T00:52:17.163Z,18.46
2022-09-13T00:53:17.143Z,18.49
2022-09-13T00:54:17.125Z,18.45
2022-09-13T00:55:17.123Z,18.49
2022-09-13T00:56:17.089Z,18.52
2022-09-13T00:57:17.071Z,18.38
2022-09-13T00:58:17.056Z,18.45
2022-09-13T00:59:17.039Z,18.48
2022-09-13T01:00:17.038Z,18.45
2022-09-13T01:01:17.035Z,18.43
2022-09-13T01:02:17.200Z,18.42
2022-09-13T01:03:16.978Z,18.48
2022-09-13T01:04:16.952Z,18.48
2022-09-13T01:05:16.950Z,18.46
2022-09-13T01:06:16.914Z,18.43
2022-09-13T01:07:16.917Z,18.38
2022-09-13T01:08:16.897Z,18.33
2022-09-13T01:09:16.868Z,18.36
2022-09-13T01:10:16.841Z,18.36
2022-09-13T01:11:16.832Z,18.39
2022-09-13T01:12:16.823Z,18.46
2022-09-13T01:13:16.794Z,18.42
2022-09-13T01:14:16.773Z,18.21
2022-09-13T01:15:16.766Z,18.24
2022-09-13T01:16:16.777Z,18.20
2022-09-13T01:17:16.742Z,18.31
2022-09-13T01:18:16.723Z,18.27
2022-09-13T01:19:16.698Z,18.31
2022-09-13T01:20:16.673Z,18.36
2022-09-13T01:21:16.671Z,18.31
2022-09-13T01:22:16.634Z,18.31
2022-09-13T01:23:16.630Z,18.27
2022-09-13T01:24:16.599Z,18.33
2022-09-13T01:25:16.581Z,18.36
2022-09-13T01:26:16.591Z,18.23
2022-09-13T01:27:16.545Z,18.36
2022-09-13T01:28:16.530Z,18.36
2022-09-13T01:29:16.528Z,18.39
2022-09-13T01:30:16.502Z,18.34
2022-09-13T01:31:16.495Z,18.21
2022-09-13T01:32:16.457Z,18.24
2022-09-13T01:33:16.446Z,18.34
2022-09-13T01:34:16.445Z,18.24
2022-09-13T01:35:16.403Z,18.28
2022-09-13T01:36:16.406Z,18.38
2022-09-13T01:37:16.370Z,18.31
2022-09-13T01:38:16.349Z,18.30
2022-09-13T01:39:16.384Z,18.23
2022-09-13T01:40:16.347Z,18.18
2022-09-13T01:41:16.302Z,18.23
2022-09-13T01:42:16.281Z,18.20
2022-09-13T01:43:16.264Z,18.23
2022-09-13T01:44:16.242Z,18.23
2022-09-13T01:45:16.248Z,18.23
2022-09-13T01:46:16.212Z,18.23
2022-09-13T01:47:16.200Z,18.17
2022-09-13T01:48:16.171Z,18.20
2022-09-13T01:49:16.160Z,18.15
2022-09-13T01:50:16.135Z,18.12
2022-09-13T01:51:16.136Z,18.15
2022-09-13T01:52:16.098Z,18.15
2022-09-13T01:53:16.089Z,18.17
2022-09-13T01:54:16.070Z,18.20
2022-09-13T01:55:16.050Z,18.20
2022-09-13T01:56:16.050Z,18.17
2022-09-13T01:57:16.030Z,18.21
2022-09-13T01:58:15.998Z,18.15
2022-09-13T01:59:15.976Z,18.17
2022-09-13T02:00:15.962Z,18.08
2022-09-13T02:01:15.958Z,18.12
2022-09-13T02:02:15.976Z,18.15
2022-09-13T02:03:15.922Z,18.12
2022-09-13T02:04:15.888Z,18.09
2022-09-13T02:05:15.870Z,18.11
2022-09-13T02:06:15.858Z,18.09
2022-09-13T02:07:15.837Z,18.06
2022-09-13T02:08:15.840Z,18.08
2022-09-13T02:09:18.520Z,18.09
2022-09-13T02:10:15.787Z,18.09
2022-09-13T02:11:15.762Z,18.20
2022-09-13T02:12:15.751Z,18.20
2022-09-13T02:13:15.813Z,18.12
2022-09-13T02:14:15.729Z,18.15
2022-09-13T02:15:15.700Z,18.15
2022-09-13T02:16:15.702Z,18.12
2022-09-13T02:17:15.662Z,18.06
2022-09-13T02:18:15.641Z,18.12
2022-09-13T02:19:15.645Z,18.06
2022-09-13T02:20:15.626Z,18.09
2022-09-13T02:21:15.589Z,18.09
2022-09-13T02:22:15.577Z,18.13
2022-09-13T02:23:15.559Z,18.06
2022-09-13T02:24:15.539Z,18.13
2022-09-13T02:25:15.538Z,18.20
2022-09-13T02:26:15.513Z,18.09
2022-09-13T02:27:15.497Z,18.15
2022-09-13T02:28:15.465Z,18.18
2022-09-13T02:29:15.532Z,18.18
2022-09-13T02:30:15.430Z,18.24
2022-09-13T02:31:15.477Z,18.17
2022-09-13T02:32:15.395Z,18.17
2022-09-13T02:33:15.376Z,18.13
2022-09-13T02:34:15.375Z,18.20
2022-09-13T02:35:15.359Z,18.23
2022-09-13T02:36:15.323Z,18.17
2022-09-13T02:37:15.321Z,18.21
2022-09-13T02:38:15.286Z,18.30
2022-09-13T02:39:15.275Z,18.21
2022-09-13T02:40:15.345Z,18.17
2022-09-13T02:41:15.256Z,18.26
2022-09-13T02:42:15.221Z,18.15
2022-09-13T02:43:15.195Z,18.20
2022-09-13T02:44:15.187Z,18.20
2022-09-13T02:45:15.183Z,18.18
2022-09-13T02:46:15.145Z,18.20
2022-09-13T02:47:15.124Z,18.17
2022-09-13T02:48:15.116Z,18.20
2022-09-13T02:49:15.092Z,18.20
2022-09-13T02:50:15.074Z,18.15
2022-09-13T02:51:15.075Z,18.21
2022-09-13T02:52:15.041Z,18.20
2022-09-13T02:53:15.027Z,18.17
2022-09-13T02:54:15.004Z,18.15
2022-09-13T02:55:14.982Z,18.17
2022-09-13T02:56:14.971Z,18.23
2022-09-13T02:57:14.978Z,18.17
2022-09-13T02:58:14.934Z,18.21
2022-09-13T02:59:14.926Z,18.17
2022-09-13T03:00:14.903Z,18.23
2022-09-13T03:01:14.937Z,18.18
2022-09-13T03:02:14.891Z,18.20
2022-09-13T03:03:14.866Z,18.21
2022-09-13T03:04:14.857Z,18.18
2022-09-13T03:05:14.816Z,18.15
2022-09-13T03:06:14.796Z,18.17
2022-09-13T03:07:14.774Z,18.17
2022-09-13T03:08:14.759Z,18.12
2022-09-13T03:09:14.740Z,18.12
2022-09-13T03:10:14.743Z,17.99
2022-09-13T03:11:14.707Z,17.97
2022-09-13T03:12:14.714Z,17.90
2022-09-13T03:13:14.666Z,17.87
2022-09-13T03:14:14.650Z,17.93
2022-09-13T03:15:14.634Z,17.86
2022-09-13T03:16:14.640Z,17.88
2022-09-13T03:17:14.595Z,17.90
2022-09-13T03:18:14.594Z,17.88
2022-09-13T03:19:14.558Z,17.88
2022-09-13T03:20:14.555Z,17.90
2022-09-13T03:21:14.545Z,17.97
2022-09-13T03:22:14.513Z,17.87
2022-09-13T03:23:14.489Z,17.79
2022-09-13T03:24:14.470Z,17.76
2022-09-13T03:25:14.452Z,17.86
2022-09-13T03:26:14.450Z,17.83
2022-09-13T03:27:14.422Z,17.72
2022-09-13T03:28:14.396Z,17.65
2022-09-13T03:29:14.383Z,17.62
2022-09-13T03:30:14.381Z,17.71
2022-09-13T03:31:15.651Z,17.78
2022-09-13T03:32:14.364Z,17.71
2022-09-13T03:33:14.315Z,17.71
2022-09-13T03:34:14.290Z,17.78
2022-09-13T03:35:14.279Z,17.73
2022-09-13T03:36:14.285Z,17.66
2022-09-13T03:37:14.277Z,17.63
2022-09-13T03:38:14.216Z,17.72
2022-09-13T03:39:15.231Z,17.65
2022-09-13T03:40:14.369Z,17.63
2022-09-13T03:41:14.172Z,17.65
2022-09-13T03:42:14.149Z,17.66
2022-09-13T03:43:14.150Z,17.63
2022-09-13T03:44:14.127Z,17.59
2022-09-13T03:45:14.094Z,17.63
2022-09-13T03:46:14.101Z,17.59
2022-09-13T03:47:14.056Z,17.56
2022-09-13T03:48:14.043Z,17.59
2022-09-13T03:49:14.045Z,17.59
2022-09-13T03:50:14.006Z,17.63
2022-09-13T03:51:13.983Z,17.63
2022-09-13T03:52:13.987Z,17.57
2022-09-13T03:53:13.948Z,17.71
2022-09-13T03:54:13.936Z,17.66
2022-09-13T03:55:13.924Z,17.68
2022-09-13T03:56:13.903Z,17.62
2022-09-13T03:57:13.878Z,17.59
2022-09-13T03:58:13.885Z,17.72
2022-09-13T03:59:13.843Z,17.66
2022-09-13T04:00:13.827Z,17.66
2022-09-13T04:01:13.840Z,17.69
2022-09-13T04:02:13.828Z,17.68
2022-09-13T04:03:13.768Z,17.62
2022-09-13T04:04:13.768Z,17.59
2022-09-13T04:05:13.734Z,17.65
2022-09-13T04:06:13.769Z,17.72
2022-09-13T04:07:13.700Z,17.71
2022-09-13T04:08:13.683Z,17.71
2022-09-13T04:09:13.665Z,17.69
2022-09-13T04:10:14.067Z,17.69
2022-09-13T04:11:13.627Z,17.72
2022-09-13T04:12:13.684Z,17.72
2022-09-13T04:13:13.601Z,17.62
2022-09-13T04:14:13.587Z,17.63
2022-09-13T04:15:13.557Z,17.65
2022-09-13T04:16:13.592Z,17.62
2022-09-13T04:17:13.526Z,17.56
2022-09-13T04:18:13.495Z,17.59
2022-09-13T04:19:13.482Z,17.66
2022-09-13T04:20:13.491Z,17.66
2022-09-13T04:21:13.473Z,17.75
2022-09-13T04:22:13.453Z,17.68
2022-09-13T04:23:13.438Z,17.59
2022-09-13T04:24:13.393Z,17.72
2022-09-13T04:25:13.390Z,17.56
2022-09-13T04:26:13.366Z,17.56
2022-09-13T04:27:13.366Z,17.59
2022-09-13T04:28:13.323Z,17.66
2022-09-13T04:29:13.321Z,17.62
2022-09-13T04:30:13.306Z,17.69
2022-09-13T04:31:13.297Z,17.59
2022-09-13T04:32:13.253Z,17.57
2022-09-13T04:33:13.239Z,17.56
2022-09-13T04:34:13.213Z,17.57
2022-09-13T04:35:13.235Z,17.49
2022-09-13T04:36:13.176Z,17.38
2022-09-13T04:37:13.261Z,17.49
2022-09-13T04:38:13.151Z,17.45
2022-09-13T04:39:13.124Z,17.49
2022-09-13T04:40:13.234Z,17.43
2022-09-13T04:41:13.139Z,17.45
2022-09-13T04:42:13.133Z,17.41
2022-09-13T04:43:13.075Z,17.37
2022-09-13T04:44:13.052Z,17.31
2022-09-13T04:45:13.022Z,17.45
2022-09-13T04:46:13.107Z,17.41
2022-09-13T04:47:12.975Z,17.38
2022-09-13T04:48:12.956Z,17.35
2022-09-13T04:49:12.939Z,17.34
2022-09-13T04:50:12.938Z,17.35
2022-09-13T04:51:12.926Z,17.35
2022-09-13T04:52:12.903Z,17.27
2022-09-13T04:53:12.869Z,17.25
2022-09-13T04:54:15.527Z,17.20
2022-09-13T04:55:12.849Z,17.22
2022-09-13T04:56:12.816Z,17.25
2022-09-13T04:57:12.795Z,17.14
2022-09-13T04:58:12.792Z,17.13
2022-09-13T04:59:12.776Z,17.09
2022-09-13T05:00:12.746Z,17.10
2022-09-13T05:01:12.795Z,17.09
2022-09-13T05:02:12.774Z,17.12
2022-09-13T05:03:12.684Z,17.09
2022-09-13T05:04:12.685Z,17.12
2022-09-13T05:05:12.649Z,17.13
2022-09-13T05:06:12.650Z,17.16
2022-09-13T05:07:12.611Z,17.22
2022-09-13T05:08:12.617Z,17.19
2022-09-13T05:09:12.763Z,17.22
2022-09-13T05:10:16.310Z,17.20
2022-09-13T05:11:12.557Z,17.22
2022-09-13T05:12:12.534Z,17.27
2022-09-13T05:13:12.516Z,17.27
2022-09-13T05:14:12.487Z,17.16
2022-09-13T05:15:12.469Z,17.28
2022-09-13T05:16:12.492Z,17.24
2022-09-13T05:17:12.443Z,17.20
2022-09-13T05:18:12.412Z,17.22
2022-09-13T05:19:12.400Z,17.22
2022-09-13T05:20:12.375Z,17.19
2022-09-13T05:21:12.359Z,17.20
2022-09-13T05:22:12.355Z,17.14
2022-09-13T05:23:12.322Z,17.16
2022-09-13T05:24:12.304Z,17.20
2022-09-13T05:25:12.286Z,17.16
2022-09-13T05:26:12.280Z,17.16
2022-09-13T05:27:12.246Z,17.22
2022-09-13T05:28:12.240Z,17.22
2022-09-13T05:29:12.228Z,17.24
2022-09-13T05:30:12.200Z,17.22
2022-09-13T05:31:12.227Z,17.17
2022-09-13T05:32:12.163Z,17.22
2022-09-13T05:33:12.137Z,17.25
2022-09-13T05:34:12.115Z,17.28
2022-09-13T05:35:12.103Z,17.28
2022-09-13T05:36:12.092Z,17.24
2022-09-13T05:37:12.080Z,17.25
2022-09-13T05:38:12.042Z,17.17
2022-09-13T05:39:30.354Z,17.19
2022-09-13T05:40:12.857Z,17.20
2022-09-13T05:41:12.008Z,17.17
2022-09-13T05:42:11.968Z,17.20
2022-09-13T05:43:11.971Z,17.19
2022-09-13T05:44:13.591Z,17.25
2022-09-13T05:45:11.913Z,17.30
2022-09-13T05:46:11.958Z,17.24
2022-09-13T05:47:11.879Z,17.27
2022-09-13T05:50:26.523Z,17.25
2022-09-13T05:50:58.831Z,17.28
2022-09-13T05:51:57.817Z,17.27
2022-09-13T05:52:57.799Z,17.31
2022-09-13T05:53:57.778Z,17.31
2022-09-13T05:54:57.782Z,17.32
2022-09-13T05:55:57.742Z,17.31
2022-09-13T05:56:57.806Z,17.34
2022-09-13T05:57:57.708Z,17.38
2022-09-13T05:58:57.708Z,17.39
2022-09-13T05:59:57.668Z,17.37
2022-09-13T06:00:57.652Z,17.39
2022-09-13T06:01:57.686Z,17.45
2022-09-13T06:02:57.625Z,17.43
2022-09-13T06:03:57.622Z,17.45
2022-09-13T06:04:57.579Z,17.43
2022-09-13T06:05:57.588Z,17.39
2022-09-13T06:06:57.546Z,17.45
2022-09-13T06:07:57.530Z,17.46
2022-09-13T06:08:57.514Z,17.47
2022-09-13T06:09:57.510Z,17.45
2022-09-13T06:10:57.487Z,17.59
2022-09-13T06:11:57.455Z,17.57
2022-09-13T06:12:57.433Z,17.54
2022-09-13T06:13:57.411Z,17.54
2022-09-13T06:14:57.398Z,17.53
2022-09-13T06:15:57.428Z,17.57
2022-09-13T06:16:57.360Z,17.56
2022-09-13T06:17:57.340Z,17.57
2022-09-13T06:18:57.324Z,17.69
2022-09-13T06:19:57.308Z,17.62
2022-09-13T06:20:57.310Z,17.63
2022-09-13T06:21:57.286Z,17.59
2022-09-13T06:22:57.255Z,17.59
2022-09-13T06:23:57.271Z,17.65
2022-09-13T06:24:57.217Z,17.69
2022-09-13T06:25:57.197Z,17.68
2022-09-13T06:26:57.206Z,17.78
2022-09-13T06:27:57.163Z,17.79
2022-09-13T06:28:57.226Z,17.83
2022-09-13T06:29:57.130Z,17.83
2022-09-13T06:30:57.161Z,17.86
2022-09-13T06:31:57.104Z,17.78
2022-09-13T06:32:57.111Z,17.81
2022-09-13T06:33:57.061Z,17.81
2022-09-13T06:34:57.038Z,17.87
2022-09-13T06:35:57.015Z,17.84
2022-09-13T06:36:57.001Z,17.86
2022-09-13T06:37:56.978Z,17.90
2022-09-13T06:38:57.057Z,17.94
2022-09-13T06:39:57.004Z,18.01
2022-09-13T06:40:56.928Z,18.03
2022-09-13T06:41:56.909Z,18.11
2022-09-13T06:42:56.910Z,18.09
2022-09-13T06:43:56.877Z,18.09
2022-09-13T06:44:56.856Z,18.09
2022-09-13T06:45:56.864Z,18.12
2022-09-13T06:46:56.820Z,18.21
2022-09-13T06:47:56.820Z,18.15
2022-09-13T06:48:56.779Z,18.21
2022-09-13T06:49:56.765Z,18.24
2022-09-13T06:50:56.752Z,18.21
2022-09-13T06:51:56.728Z,18.34
2022-09-13T06:52:56.726Z,18.36
2022-09-13T06:53:56.812Z,18.41
2022-09-13T06:54:56.692Z,18.36
2022-09-13T06:55:56.662Z,18.43
2022-09-13T06:56:56.633Z,18.49
2022-09-13T06:57:56.623Z,18.51
2022-09-13T06:58:56.602Z,18.43
2022-09-13T06:59:56.608Z,18.54
2022-09-13T07:00:56.602Z,18.49
2022-09-13T07:01:56.600Z,18.52
2022-09-13T07:02:56.530Z,18.49
2022-09-13T07:03:56.523Z,18.43
2022-09-13T07:04:56.720Z,18.52
2022-09-13T07:05:56.550Z,18.54
2022-09-13T07:06:56.463Z,18.56
2022-09-13T07:07:56.446Z,18.57
2022-09-13T07:08:56.427Z,18.61
2022-09-13T07:09:56.426Z,18.70
2022-09-13T07:10:56.412Z,18.63
2022-09-13T07:11:56.377Z,18.54
2022-09-13T07:12:56.356Z,18.67
2022-09-13T07:13:56.343Z,18.60
2022-09-13T07:14:56.323Z,18.74
2022-09-13T07:15:56.410Z,18.70
2022-09-13T07:16:56.367Z,18.74
2022-09-13T07:17:56.267Z,18.71
2022-09-13T07:18:56.244Z,18.71
2022-09-13T07:19:56.245Z,18.76
2022-09-13T07:20:56.215Z,18.71
2022-09-13T07:21:56.191Z,18.75
2022-09-13T07:22:56.200Z,18.85
2022-09-13T07:23:56.165Z,18.81
2022-09-13T07:24:56.145Z,18.81
2022-09-13T07:25:56.122Z,18.82
2022-09-13T07:26:56.107Z,18.82
2022-09-13T07:27:56.102Z,18.91
2022-09-13T07:28:56.080Z,18.88
2022-09-13T07:29:56.057Z,18.91
2022-09-13T07:30:56.124Z,18.88
2022-09-13T07:31:56.037Z,18.94
2022-09-13T07:32:56.080Z,18.91
2022-09-13T07:33:55.986Z,19.04
2022-09-13T07:34:55.990Z,19.00
2022-09-13T07:35:55.952Z,18.93
2022-09-13T07:36:55.942Z,19.17
2022-09-13T07:37:55.912Z,19.15
2022-09-13T07:38:55.932Z,19.20
2022-09-13T07:39:55.912Z,19.13
2022-09-13T07:40:55.867Z,19.19
2022-09-13T07:41:55.842Z,19.13
2022-09-13T07:42:55.829Z,19.20
2022-09-13T07:43:55.809Z,19.16
2022-09-13T07:44:55.809Z,19.24
2022-09-13T07:45:55.819Z,19.30
2022-09-13T07:46:55.761Z,19.45
2022-09-13T07:47:55.770Z,19.41
2022-09-13T07:48:55.822Z,19.37
2022-09-13T07:49:55.708Z,19.41
2022-09-13T07:50:55.690Z,19.39
2022-09-13T07:51:55.682Z,19.45
2022-09-13T07:52:55.648Z,19.39
2022-09-13T07:53:57.589Z,19.44
2022-09-13T07:54:55.684Z,19.39
2022-09-13T07:55:55.656Z,19.42
2022-09-13T07:56:55.664Z,19.42
2022-09-13T07:57:55.575Z,19.49
2022-09-13T07:58:55.547Z,19.54
2022-09-13T07:59:55.556Z,19.67
2022-09-13T08:00:55.511Z,19.62
2022-09-13T08:01:55.589Z,19.59
2022-09-13T08:02:55.486Z,19.72
2022-09-13T08:03:55.493Z,19.77
2022-09-13T08:04:55.484Z,19.77
2022-09-13T08:05:55.429Z,19.96
2022-09-13T08:06:55.430Z,20.00
2022-09-13T08:07:55.394Z,20.02
2022-09-13T08:08:55.373Z,20.04
2022-09-13T08:09:55.377Z,20.17
2022-09-13T08:10:55.361Z,20.15
2022-09-13T08:11:55.324Z,20.17
2022-09-13T08:12:55.309Z,20.30
2022-09-13T08:13:55.298Z,20.18
2022-09-13T08:14:55.277Z,20.18
2022-09-13T08:15:55.292Z,20.33
2022-09-13T08:16:55.269Z,20.34
2022-09-13T08:17:55.224Z,20.39
2022-09-13T08:18:55.211Z,20.33
2022-09-13T08:19:55.187Z,20.52
2022-09-13T08:20:55.178Z,20.48
2022-09-13T08:21:55.163Z,20.50
2022-09-13T08:22:55.157Z,20.58
2022-09-13T08:23:55.125Z,20.75
2022-09-13T08:24:55.134Z,20.74
2022-09-13T08:25:55.090Z,20.74
2022-09-13T08:26:55.100Z,20.80
2022-09-13T08:27:55.060Z,20.97
2022-09-13T08:28:55.041Z,20.92
2022-09-13T08:29:55.021Z,20.92
2022-09-13T08:30:55.083Z,20.93
2022-09-13T08:31:54.988Z,21.03
2022-09-13T08:32:55.009Z,20.97
2022-09-13T08:33:54.978Z,21.05
2022-09-13T08:34:54.941Z,21.05
2022-09-13T08:35:54.939Z,21.05
2022-09-13T08:36:54.998Z,21.08
2022-09-13T08:37:54.890Z,21.11
2022-09-13T08:38:54.873Z,21.16
2022-09-13T08:39:54.897Z,21.16
2022-09-13T08:40:54.847Z,21.25
2022-09-13T08:41:54.840Z,21.43
2022-09-13T08:42:54.804Z,21.50
2022-09-13T08:43:54.802Z,21.55
2022-09-13T08:44:54.775Z,21.56
2022-09-13T08:45:54.795Z,21.67
2022-09-13T08:46:54.759Z,21.59
2022-09-13T08:47:54.729Z,21.55
2022-09-13T08:48:54.706Z,21.60
2022-09-13T08:49:54.741Z,21.73
2022-09-13T08:50:54.677Z,21.81
2022-09-13T08:51:54.661Z,21.91
2022-09-13T08:52:54.651Z,21.98
2022-09-13T08:53:54.630Z,22.07
2022-09-13T08:54:58.151Z,22.13
2022-09-13T08:55:54.610Z,22.18
2022-09-13T08:56:54.574Z,22.19
2022-09-13T08:57:54.562Z,22.40
2022-09-13T08:58:54.572Z,22.52
2022-09-13T08:59:54.531Z,22.70
2022-09-13T09:00:54.545Z,22.96
2022-09-13T09:01:54.500Z,22.99
2022-09-13T09:02:54.556Z,23.13
2022-09-13T09:03:54.468Z,23.28
2022-09-13T09:04:54.447Z,23.29
2022-09-13T09:05:54.487Z,23.46
2022-09-13T09:06:57.917Z,23.51
2022-09-13T09:07:54.414Z,23.63
2022-09-13T09:08:54.404Z,23.55
2022-09-13T09:09:54.378Z,23.28
2022-09-13T09:10:54.380Z,23.06
2022-09-13T09:11:54.353Z,23.10
2022-09-13T09:12:54.325Z,23.04
2022-09-13T09:13:54.309Z,23.23
2022-09-13T09:14:54.312Z,23.10
2022-09-13T09:15:54.319Z,23.18
2022-09-13T09:16:54.287Z,23.33
2022-09-13T09:17:54.251Z,23.25
2022-09-13T09:18:54.256Z,23.67
2022-09-13T09:19:54.220Z,23.96
2022-09-13T09:20:54.241Z,24.21
2022-09-13T09:21:54.213Z,24.52
2022-09-13T09:22:54.177Z,24.78
2022-09-13T09:23:54.163Z,25.04
2022-09-13T09:24:54.169Z,25.22
2022-09-13T09:25:54.157Z,25.49
2022-09-13T09:26:54.135Z,25.74
2022-09-13T09:27:54.111Z,26.08
2022-09-13T09:28:54.093Z,26.48
2022-09-13T09:29:54.096Z,26.78
2022-09-13T09:30:54.143Z,27.00
2022-09-13T09:31:54.049Z,27.26
2022-09-13T09:32:54.041Z,27.37
2022-09-13T09:33:54.022Z,27.60
2022-09-13T09:34:54.031Z,27.05
2022-09-13T09:35:54.016Z,26.65
2022-09-13T09:36:53.982Z,26.88
2022-09-13T09:37:53.964Z,26.73
2022-09-13T09:38:53.952Z,26.76
2022-09-13T09:39:54.014Z,26.95
2022-09-13T09:40:53.953Z,27.15
2022-09-13T09:41:53.917Z,27.16
2022-09-13T09:42:53.919Z,27.13
2022-09-13T09:43:53.887Z,27.05
2022-09-13T09:44:53.875Z,27.08
2022-09-13T09:45:53.954Z,26.98
2022-09-13T09:46:53.852Z,26.93
2022-09-13T09:47:53.864Z,27.07
2022-09-13T09:48:53.824Z,27.20
2022-09-13T09:49:53.823Z,27.42
2022-09-13T09:50:53.792Z,27.58
2022-09-13T09:51:53.811Z,27.75
2022-09-13T09:52:53.767Z,27.93
2022-09-13T09:53:53.767Z,28.01
2022-09-13T09:54:53.743Z,28.20
2022-09-13T09:55:53.738Z,28.46
2022-09-13T09:56:53.724Z,28.53
2022-09-13T09:57:53.738Z,28.57
2022-09-13T09:58:53.726Z,28.62
2022-09-13T09:59:53.696Z,28.38
2022-09-13T10:00:53.676Z,28.40
2022-09-13T10:01:53.687Z,28.56
2022-09-13T10:02:53.650Z,28.71
2022-09-13T10:03:53.642Z,29.02
2022-09-13T10:04:53.655Z,28.74
2022-09-13T10:05:53.639Z,28.64
2022-09-13T10:06:53.611Z,28.90
2022-09-13T10:07:53.594Z,29.24
2022-09-13T10:08:53.601Z,29.52
2022-09-13T10:09:53.598Z,29.96
2022-09-13T10:10:53.565Z,30.28
2022-09-13T10:11:53.549Z,30.49
2022-09-13T10:12:53.540Z,30.68
2022-09-13T10:13:53.530Z,31.02
2022-09-13T10:14:53.523Z,31.17
2022-09-13T10:15:53.557Z,30.48
2022-09-13T10:16:53.560Z,30.14
2022-09-13T10:17:53.494Z,30.11
2022-09-13T10:18:53.525Z,30.36
2022-09-13T10:19:53.469Z,30.67
2022-09-13T10:20:53.484Z,30.86
2022-09-13T10:21:53.464Z,30.93
2022-09-13T10:22:53.457Z,30.82
2022-09-13T10:30:40.816Z,28.72
2022-09-13T10:31:41.384Z,28.05
2022-09-13T10:32:40.578Z,27.72
2022-09-13T10:33:40.554Z,27.53
2022-09-13T10:34:40.542Z,27.37
2022-09-13T10:35:40.536Z,27.49
2022-09-13T10:36:52.095Z,27.49
2022-09-13T10:37:40.537Z,27.82
2022-09-13T10:38:45.446Z,27.88
2022-09-13T10:39:40.613Z,27.83
2022-09-13T10:40:40.482Z,27.82
2022-09-13T10:41:40.473Z,27.80
2022-09-13T10:42:40.485Z,27.38
2022-09-13T10:43:40.466Z,27.50
2022-09-13T10:44:40.462Z,27.69
2022-09-13T10:45:40.472Z,27.82
2022-09-13T10:46:40.427Z,27.85
2022-09-13T10:47:40.418Z,27.98
2022-09-13T10:48:40.449Z,27.83
2022-09-13T10:49:40.407Z,27.80
2022-09-13T10:50:40.401Z,27.75
2022-09-13T10:51:40.417Z,27.50
2022-09-13T10:52:40.371Z,27.05
2022-09-13T10:53:40.357Z,26.79
2022-09-13T10:54:40.354Z,26.86
2022-09-13T10:55:40.362Z,26.79
2022-09-13T10:56:40.346Z,26.82
2022-09-13T10:57:40.312Z,26.71
2022-09-13T10:58:40.305Z,26.70
2022-09-13T10:59:40.331Z,26.64
2022-09-13T11:00:40.296Z,26.65
2022-09-13T11:01:40.771Z,26.61
2022-09-13T11:02:40.281Z,26.38
2022-09-13T11:03:40.283Z,26.38
2022-09-13T11:04:40.246Z,26.20
2022-09-13T11:05:40.234Z,26.36
2022-09-13T11:06:40.246Z,26.52
2022-09-13T11:07:40.218Z,26.53
2022-09-13T11:08:40.208Z,26.67
2022-09-13T11:09:40.192Z,26.78
2022-09-13T11:10:40.211Z,26.93
2022-09-13T11:11:40.169Z,27.01
2022-09-13T11:12:40.195Z,26.83
2022-09-13T11:13:44.509Z,26.82
2022-09-13T11:14:40.138Z,26.67
2022-09-13T11:15:40.160Z,26.65
2022-09-13T11:16:40.160Z,26.68
2022-09-13T11:17:40.099Z,26.82
2022-09-13T11:18:40.091Z,26.76
2022-09-13T11:19:40.080Z,26.68
2022-09-13T11:20:40.075Z,26.63
2022-09-13T11:21:40.072Z,26.67
2022-09-13T11:22:40.070Z,26.93
2022-09-13T11:23:40.037Z,27.27
2022-09-13T11:24:40.026Z,27.41
2022-09-13T11:25:40.015Z,27.69
2022-09-13T11:26:40.021Z,27.93
2022-09-13T11:27:39.981Z,28.16
2022-09-13T11:28:39.974Z,28.35
2022-09-13T11:29:39.971Z,28.49
2022-09-13T11:30:39.961Z,28.59
2022-09-13T11:31:39.998Z,28.87
2022-09-13T11:32:39.960Z,28.93
2022-09-13T11:33:39.920Z,29.29
2022-09-13T11:34:39.968Z,29.50
2022-09-13T11:35:39.894Z,29.66
2022-09-13T11:36:39.911Z,29.84
2022-09-13T11:37:39.875Z,30.00
2022-09-13T11:38:39.912Z,30.00
2022-09-13T11:39:39.859Z,29.81
2022-09-13T11:40:39.844Z,29.36
2022-09-13T11:41:39.836Z,29.29
2022-09-13T11:42:39.831Z,29.24
2022-09-13T11:43:39.835Z,29.34
2022-09-13T11:44:39.804Z,29.39
2022-09-13T11:45:39.838Z,29.47
2022-09-13T11:46:39.779Z,29.55
2022-09-13T11:47:39.794Z,29.61
2022-09-13T11:48:39.760Z,29.56
2022-09-13T11:49:39.767Z,29.73
2022-09-13T11:50:39.857Z,29.68
2022-09-13T11:51:39.730Z,29.76
2022-09-13T11:52:39.716Z,29.63
2022-09-13T11:53:39.804Z,29.77
2022-09-13T11:54:39.722Z,29.86
2022-09-13T11:55:39.703Z,29.77
2022-09-13T11:56:39.688Z,29.80
2022-09-13T11:57:39.667Z,29.22
2022-09-13T11:58:39.658Z,29.10
2022-09-13T11:59:39.644Z,28.86
2022-09-13T12:00:39.653Z,28.87
2022-09-13T12:01:39.645Z,29.06
2022-09-13T12:02:39.734Z,29.10
2022-09-13T12:03:39.608Z,29.19
2022-09-13T12:04:39.589Z,29.25
2022-09-13T12:05:39.593Z,29.47
2022-09-13T12:06:39.646Z,29.66
2022-09-13T12:07:39.586Z,29.46
2022-09-13T12:08:39.548Z,29.41
2022-09-13T12:09:39.531Z,29.76
2022-09-13T12:10:39.544Z,30.28
2022-09-13T12:11:39.530Z,30.46
2022-09-13T12:12:39.513Z,30.90
2022-09-13T12:13:39.491Z,31.20
2022-09-13T12:14:39.485Z,31.33
2022-09-13T12:15:39.493Z,31.56
2022-09-13T12:16:39.532Z,31.87
2022-09-13T12:17:39.449Z,31.87
2022-09-13T12:18:39.447Z,31.95
2022-09-13T12:19:39.437Z,31.64
2022-09-13T12:20:39.434Z,31.57
2022-09-13T12:21:39.411Z,31.61
2022-09-13T12:22:39.418Z,31.78
2022-09-13T12:23:39.395Z,31.86
2022-09-13T12:24:39.381Z,32.01
2022-09-13T12:25:42.368Z,32.01
2022-09-13T12:26:39.362Z,31.95
2022-09-13T12:27:40.339Z,32.14
2022-09-13T12:28:39.380Z,32.35
2022-09-13T12:29:40.259Z,32.45
2022-09-13T12:30:39.317Z,32.70
2022-09-13T12:31:39.438Z,32.87
2022-09-13T12:32:39.300Z,32.98
2022-09-13T12:33:39.312Z,32.83
2022-09-13T12:34:39.304Z,32.73
2022-09-13T12:35:39.271Z,32.41
2022-09-13T12:36:39.927Z,32.11
2022-09-13T12:37:39.250Z,32.08
2022-09-13T12:38:39.319Z,31.75
2022-09-13T12:39:39.258Z,31.11
2022-09-13T12:40:39.220Z,30.83
2022-09-13T12:41:39.226Z,30.59
2022-09-13T12:42:39.205Z,30.82
2022-09-13T12:43:39.276Z,30.56
2022-09-13T12:44:39.185Z,30.33
2022-09-13T12:45:39.225Z,30.49
2022-09-13T12:46:39.177Z,30.29
2022-09-13T12:47:39.179Z,30.64
2022-09-13T12:48:39.151Z,30.86
2022-09-13T12:49:39.127Z,30.95
2022-09-13T12:50:43.987Z,30.74
2022-09-13T12:51:39.107Z,30.70
2022-09-13T12:52:39.094Z,30.58
2022-09-13T12:53:39.128Z,30.18
2022-09-13T12:54:39.077Z,29.92
2022-09-13T12:55:47.662Z,30.07
2022-09-13T12:56:39.073Z,30.36
2022-09-13T12:57:39.042Z,30.86
2022-09-13T12:58:39.043Z,31.17
2022-09-13T12:59:39.033Z,31.51
2022-09-13T13:00:39.087Z,31.75